sensor_id;sensor_type;location;lat;lon;timestamp;P1;P2;P0
57884;PMS5003;43703;51.060;-0.086;2022-11-20T00:01:58;17;14;
57884;PMS5003;43703;51.060;-0.086;2022-11-20T00:04:23;22;20;
57884;PMS5003;43703;51.060;-0.086;2022-11-20T00:06:48;22;19;
57884;PMS5003;43703;51.060;-0.086;2022-11-20T00:09:14;14;14;
57884;PMS5003;43703;51.060;-0.086;2022-11-20T00:11:39;16;16;
57884;PMS5003;43703;51.060;-0.086;2022-11-20T00:14:04;18;18;
57884;PMS5003;43703;51.060;-0.086;2022-11-20T00:16:30;26;22;
57884;PMS5003;43703;51.060;-0.086;2022-11-20T00:18:55;20;18;
57884;PMS5003;43703;51.060;-0.086;2022-11-20T00:21:21;21;19;
57884;PMS5003;43703;51.060;-0.086;2022-11-20T00:23:46;17;15;
57884;PMS5003;43703;51.060;-0.086;2022-11-20T00:26:13;17;17;
57884;PMS5003;43703;51.060;-0.086;2022-11-20T00:28:38;21;20;
57884;PMS5003;43703;51.060;-0.086;2022-11-20T00:31:04;23;18;
57884;PMS5003;43703;51.060;-0.086;2022-11-20T00:33:29;20;19;
57884;PMS5003;43703;51.060;-0.086;2022-11-20T00:35:58;24;22;
57884;PMS5003;43703;51.060;-0.086;2022-11-20T00:38:20;24;23;
57884;PMS5003;43703;51.060;-0.086;2022-11-20T00:40:46;24;22;
57884;PMS5003;43703;51.060;-0.086;2022-11-20T00:43:11;21;19;
57884;PMS5003;43703;51.060;-0.086;2022-11-20T00:45:37;23;21;
57884;PMS5003;43703;51.060;-0.086;2022-11-20T00:48:02;25;23;
57884;PMS5003;43703;51.060;-0.086;2022-11-20T00:50:27;24;24;
57884;PMS5003;43703;51.060;-0.086;2022-11-20T00:52:53;31;28;
57884;PMS5003;43703;51.060;-0.086;2022-11-20T00:55:18;35;31;
57884;PMS5003;43703;51.060;-0.086;2022-11-20T00:57:44;28;27;
57884;PMS5003;43703;51.060;-0.086;2022-11-20T01:00:09;38;32;
57884;PMS5003;43703;51.060;-0.086;2022-11-20T01:02:35;32;27;
57884;PMS5003;43703;51.060;-0.086;2022-11-20T01:05:00;28;25;
57884;PMS5003;43703;51.060;-0.086;2022-11-20T01:07:26;30;27;
57884;PMS5003;43703;51.060;-0.086;2022-11-20T01:09:51;29;29;
57884;PMS5003;43703;51.060;-0.086;2022-11-20T01:12:16;27;26;
57884;PMS5003;43703;51.060;-0.086;2022-11-20T01:14:41;25;23;
57884;PMS5003;43703;51.060;-0.086;2022-11-20T01:17:07;27;27;
57884;PMS5003;43703;51.060;-0.086;2022-11-20T01:19:32;25;24;
57884;PMS5003;43703;51.060;-0.086;2022-11-20T01:21:58;27;25;
57884;PMS5003;43703;51.060;-0.086;2022-11-20T01:24:23;24;24;
57884;PMS5003;43703;51.060;-0.086;2022-11-20T01:26:49;25;21;
57884;PMS5003;43703;51.060;-0.086;2022-11-20T01:29:14;23;21;
57884;PMS5003;43703;51.060;-0.086;2022-11-20T01:31:39;24;24;
57884;PMS5003;43703;51.060;-0.086;2022-11-20T01:34:05;21;20;
57884;PMS5003;43703;51.060;-0.086;2022-11-20T01:36:30;20;18;
57884;PMS5003;43703;51.060;-0.086;2022-11-20T01:38:56;19;17;
57884;PMS5003;43703;51.060;-0.086;2022-11-20T01:41:21;17;17;
57884;PMS5003;43703;51.060;-0.086;2022-11-20T01:43:46;18;18;
57884;PMS5003;43703;51.060;-0.086;2022-11-20T01:46:14;19;15;
57884;PMS5003;43703;51.060;-0.086;2022-11-20T01:48:37;16;15;
57884;PMS5003;43703;51.060;-0.086;2022-11-20T01:51:02;15;15;
57884;PMS5003;43703;51.060;-0.086;2022-11-20T01:53:28;18;16;
57884;PMS5003;43703;51.060;-0.086;2022-11-20T01:55:53;18;17;
57884;PMS5003;43703;51.060;-0.086;2022-11-20T01:58:18;13;13;
57884;PMS5003;43703;51.060;-0.086;2022-11-20T02:00:43;15;14;
57884;PMS5003;43703;51.060;-0.086;2022-11-20T02:03:10;14;13;
57884;PMS5003;43703;51.060;-0.086;2022-11-20T02:05:34;13;12;
57884;PMS5003;43703;51.060;-0.086;2022-11-20T02:07:59;18;13;
57884;PMS5003;43703;51.060;-0.086;2022-11-20T02:10:24;12;12;
57884;PMS5003;43703;51.060;-0.086;2022-11-20T02:12:49;14;13;
57884;PMS5003;43703;51.060;-0.086;2022-11-20T02:15:14;17;16;
57884;PMS5003;43703;51.060;-0.086;2022-11-20T02:17:40;10;10;
57884;PMS5003;43703;51.060;-0.086;2022-11-20T02:20:05;14;14;
57884;PMS5003;43703;51.060;-0.086;2022-11-20T02:22:31;16;13;
57884;PMS5003;43703;51.060;-0.086;2022-11-20T02:24:55;12;11;
57884;PMS5003;43703;51.060;-0.086;2022-11-20T02:27:20;13;12;
57884;PMS5003;43703;51.060;-0.086;2022-11-20T02:29:46;13;13;
57884;PMS5003;43703;51.060;-0.086;2022-11-20T02:34:37;13;13;
57884;PMS5003;43703;51.060;-0.086;2022-11-20T02:37:02;14;14;
57884;PMS5003;43703;51.060;-0.086;2022-11-20T02:39:27;14;14;
57884;PMS5003;43703;51.060;-0.086;2022-11-20T02:41:53;21;20;
57884;PMS5003;43703;51.060;-0.086;2022-11-20T02:44:18;16;16;
57884;PMS5003;43703;51.060;-0.086;2022-11-20T02:46:43;14;14;
57884;PMS5003;43703;51.060;-0.086;2022-11-20T02:49:08;21;18;
57884;PMS5003;43703;51.060;-0.086;2022-11-20T02:51:33;22;17;
57884;PMS5003;43703;51.060;-0.086;2022-11-20T02:53:59;15;13;
57884;PMS5003;43703;51.060;-0.086;2022-11-20T02:56:24;12;12;
57884;PMS5003;43703;51.060;-0.086;2022-11-20T02:58:49;13;12;
57884;PMS5003;43703;51.060;-0.086;2022-11-20T03:01:14;14;14;
57884;PMS5003;43703;51.060;-0.086;2022-11-20T03:03:39;13;12;
57884;PMS5003;43703;51.060;-0.086;2022-11-20T03:06:05;12;12;
57884;PMS5003;43703;51.060;-0.086;2022-11-20T03:08:30;13;11;
57884;PMS5003;43703;51.060;-0.086;2022-11-20T03:10:55;15;11;
57884;PMS5003;43703;51.060;-0.086;2022-11-20T03:13:20;15;13;
57884;PMS5003;43703;51.060;-0.086;2022-11-20T03:15:45;13;13;
57884;PMS5003;43703;51.060;-0.086;2022-11-20T03:18:11;15;13;
57884;PMS5003;43703;51.060;-0.086;2022-11-20T03:20:36;12;12;
57884;PMS5003;43703;51.060;-0.086;2022-11-20T03:23:01;14;11;
57884;PMS5003;43703;51.060;-0.086;2022-11-20T03:25:26;12;12;
57884;PMS5003;43703;51.060;-0.086;2022-11-20T03:27:52;14;13;
57884;PMS5003;43703;51.060;-0.086;2022-11-20T03:30:17;16;16;
57884;PMS5003;43703;51.060;-0.086;2022-11-20T03:32:43;10;10;
57884;PMS5003;43703;51.060;-0.086;2022-11-20T03:35:08;10;10;
57884;PMS5003;43703;51.060;-0.086;2022-11-20T03:37:33;12;11;
57884;PMS5003;43703;51.060;-0.086;2022-11-20T03:39:58;12;11;
57884;PMS5003;43703;51.060;-0.086;2022-11-20T03:42:23;10;10;
57884;PMS5003;43703;51.060;-0.086;2022-11-20T03:44:48;9;9;
57884;PMS5003;43703;51.060;-0.086;2022-11-20T03:47:13;9;9;
57884;PMS5003;43703;51.060;-0.086;2022-11-20T03:49:39;10;9;
57884;PMS5003;43703;51.060;-0.086;2022-11-20T03:52:04;16;14;
57884;PMS5003;43703;51.060;-0.086;2022-11-20T03:54:29;13;13;
57884;PMS5003;43703;51.060;-0.086;2022-11-20T03:56:55;9;9;
57884;PMS5003;43703;51.060;-0.086;2022-11-20T03:59:20;14;10;
57884;PMS5003;43703;51.060;-0.086;2022-11-20T04:01:45;8;8;
57884;PMS5003;43703;51.060;-0.086;2022-11-20T04:04:10;10;9;
57884;PMS5003;43703;51.060;-0.086;2022-11-20T04:06:36;12;12;
57884;PMS5003;43703;51.060;-0.086;2022-11-20T04:09:00;11;11;
57884;PMS5003;43703;51.060;-0.086;2022-11-20T04:11:26;11;9;
57884;PMS5003;43703;51.060;-0.086;2022-11-20T04:13:52;9;9;
57884;PMS5003;43703;51.060;-0.086;2022-11-20T04:16:17;13;13;
57884;PMS5003;43703;51.060;-0.086;2022-11-20T04:18:42;10;8;
57884;PMS5003;43703;51.060;-0.086;2022-11-20T04:21:07;8;8;
57884;PMS5003;43703;51.060;-0.086;2022-11-20T04:23:32;7;7;
57884;PMS5003;43703;51.060;-0.086;2022-11-20T04:26:00;10;9;
57884;PMS5003;43703;51.060;-0.086;2022-11-20T04:28:23;9;9;
57884;PMS5003;43703;51.060;-0.086;2022-11-20T04:30:48;8;8;
57884;PMS5003;43703;51.060;-0.086;2022-11-20T04:33:13;7;7;
57884;PMS5003;43703;51.060;-0.086;2022-11-20T04:35:38;10;7;
57884;PMS5003;43703;51.060;-0.086;2022-11-20T04:38:03;9;9;
57884;PMS5003;43703;51.060;-0.086;2022-11-20T04:40:28;10;8;
57884;PMS5003;43703;51.060;-0.086;2022-11-20T04:42:54;8;8;
57884;PMS5003;43703;51.060;-0.086;2022-11-20T04:45:18;9;9;
57884;PMS5003;43703;51.060;-0.086;2022-11-20T04:47:44;8;8;
57884;PMS5003;43703;51.060;-0.086;2022-11-20T04:50:09;8;8;
57884;PMS5003;43703;51.060;-0.086;2022-11-20T04:52:34;7;7;
57884;PMS5003;43703;51.060;-0.086;2022-11-20T04:54:59;8;8;
57884;PMS5003;43703;51.060;-0.086;2022-11-20T04:57:24;6;6;
57884;PMS5003;43703;51.060;-0.086;2022-11-20T04:59:49;8;8;
57884;PMS5003;43703;51.060;-0.086;2022-11-20T05:02:14;10;9;
57884;PMS5003;43703;51.060;-0.086;2022-11-20T05:04:39;11;9;
57884;PMS5003;43703;51.060;-0.086;2022-11-20T05:07:05;9;8;
57884;PMS5003;43703;51.060;-0.086;2022-11-20T05:09:30;8;8;
57884;PMS5003;43703;51.060;-0.086;2022-11-20T05:11:55;11;8;
57884;PMS5003;43703;51.060;-0.086;2022-11-20T05:14:20;8;8;
57884;PMS5003;43703;51.060;-0.086;2022-11-20T05:16:45;5;5;
57884;PMS5003;43703;51.060;-0.086;2022-11-20T05:19:10;8;8;
57884;PMS5003;43703;51.060;-0.086;2022-11-20T05:21:35;13;11;
57884;PMS5003;43703;51.060;-0.086;2022-11-20T05:24:00;11;11;
57884;PMS5003;43703;51.060;-0.086;2022-11-20T05:26:25;9;9;
57884;PMS5003;43703;51.060;-0.086;2022-11-20T05:28:50;11;11;
57884;PMS5003;43703;51.060;-0.086;2022-11-20T05:31:16;10;10;
57884;PMS5003;43703;51.060;-0.086;2022-11-20T05:33:40;8;8;
57884;PMS5003;43703;51.060;-0.086;2022-11-20T05:36:06;9;9;
57884;PMS5003;43703;51.060;-0.086;2022-11-20T05:38:30;10;10;
57884;PMS5003;43703;51.060;-0.086;2022-11-20T05:43:21;13;13;
57884;PMS5003;43703;51.060;-0.086;2022-11-20T05:45:51;11;11;
57884;PMS5003;43703;51.060;-0.086;2022-11-20T05:48:11;8;8;
57884;PMS5003;43703;51.060;-0.086;2022-11-20T05:50:37;9;9;
57884;PMS5003;43703;51.060;-0.086;2022-11-20T05:53:02;10;10;
57884;PMS5003;43703;51.060;-0.086;2022-11-20T05:55:27;9;8;
57884;PMS5003;43703;51.060;-0.086;2022-11-20T05:57:52;8;8;
57884;PMS5003;43703;51.060;-0.086;2022-11-20T06:00:17;10;9;
57884;PMS5003;43703;51.060;-0.086;2022-11-20T06:02:42;11;8;
57884;PMS5003;43703;51.060;-0.086;2022-11-20T06:05:08;9;8;
57884;PMS5003;43703;51.060;-0.086;2022-11-20T06:07:32;8;7;
57884;PMS5003;43703;51.060;-0.086;2022-11-20T06:09:57;7;7;
57884;PMS5003;43703;51.060;-0.086;2022-11-20T06:12:22;13;10;
57884;PMS5003;43703;51.060;-0.086;2022-11-20T06:14:48;8;7;
57884;PMS5003;43703;51.060;-0.086;2022-11-20T06:17:13;18;15;
57884;PMS5003;43703;51.060;-0.086;2022-11-20T06:19:39;9;9;
57884;PMS5003;43703;51.060;-0.086;2022-11-20T06:22:04;7;7;
57884;PMS5003;43703;51.060;-0.086;2022-11-20T06:24:29;12;10;
57884;PMS5003;43703;51.060;-0.086;2022-11-20T06:26:54;7;7;
57884;PMS5003;43703;51.060;-0.086;2022-11-20T06:29:19;10;8;
57884;PMS5003;43703;51.060;-0.086;2022-11-20T06:31:44;10;8;
57884;PMS5003;43703;51.060;-0.086;2022-11-20T06:34:09;10;7;
57884;PMS5003;43703;51.060;-0.086;2022-11-20T06:36:34;8;7;
57884;PMS5003;43703;51.060;-0.086;2022-11-20T06:38:59;7;5;
57884;PMS5003;43703;51.060;-0.086;2022-11-20T06:41:24;7;7;
57884;PMS5003;43703;51.060;-0.086;2022-11-20T06:43:49;7;7;
57884;PMS5003;43703;51.060;-0.086;2022-11-20T06:46:15;9;8;
57884;PMS5003;43703;51.060;-0.086;2022-11-20T06:48:39;9;9;
57884;PMS5003;43703;51.060;-0.086;2022-11-20T06:51:04;6;6;
57884;PMS5003;43703;51.060;-0.086;2022-11-20T06:53:29;10;10;
57884;PMS5003;43703;51.060;-0.086;2022-11-20T06:55:55;6;6;
57884;PMS5003;43703;51.060;-0.086;2022-11-20T06:58:19;4;4;
57884;PMS5003;43703;51.060;-0.086;2022-11-20T07:00:44;6;3;
57884;PMS5003;43703;51.060;-0.086;2022-11-20T07:03:10;3;3;
57884;PMS5003;43703;51.060;-0.086;2022-11-20T07:05:35;3;3;
57884;PMS5003;43703;51.060;-0.086;2022-11-20T07:07:59;2;2;
57884;PMS5003;43703;51.060;-0.086;2022-11-20T07:10:24;3;3;
57884;PMS5003;43703;51.060;-0.086;2022-11-20T07:12:50;3;3;
57884;PMS5003;43703;51.060;-0.086;2022-11-20T07:15:15;1;1;
57884;PMS5003;43703;51.060;-0.086;2022-11-20T07:17:40;0;0;
57884;PMS5003;43703;51.060;-0.086;2022-11-20T07:20:05;1;1;
57884;PMS5003;43703;51.060;-0.086;2022-11-20T07:22:30;2;2;
57884;PMS5003;43703;51.060;-0.086;2022-11-20T07:24:55;0;0;
57884;PMS5003;43703;51.060;-0.086;2022-11-20T07:27:20;1;1;
57884;PMS5003;43703;51.060;-0.086;2022-11-20T07:29:45;1;1;
57884;PMS5003;43703;51.060;-0.086;2022-11-20T07:32:10;1;1;
57884;PMS5003;43703;51.060;-0.086;2022-11-20T07:34:35;1;1;
57884;PMS5003;43703;51.060;-0.086;2022-11-20T07:37:00;2;1;
57884;PMS5003;43703;51.060;-0.086;2022-11-20T07:39:25;1;1;
57884;PMS5003;43703;51.060;-0.086;2022-11-20T07:41:50;2;2;
57884;PMS5003;43703;51.060;-0.086;2022-11-20T07:44:15;1;1;
57884;PMS5003;43703;51.060;-0.086;2022-11-20T07:46:40;0;0;
57884;PMS5003;43703;51.060;-0.086;2022-11-20T07:49:05;1;1;
57884;PMS5003;43703;51.060;-0.086;2022-11-20T07:51:31;3;3;
57884;PMS5003;43703;51.060;-0.086;2022-11-20T07:53:55;2;2;
57884;PMS5003;43703;51.060;-0.086;2022-11-20T07:56:20;3;3;
57884;PMS5003;43703;51.060;-0.086;2022-11-20T07:58:45;5;3;
57884;PMS5003;43703;51.060;-0.086;2022-11-20T08:01:10;4;4;
57884;PMS5003;43703;51.060;-0.086;2022-11-20T08:03:35;2;2;
57884;PMS5003;43703;51.060;-0.086;2022-11-20T08:06:01;1;0;
57884;PMS5003;43703;51.060;-0.086;2022-11-20T08:08:27;0;0;
57884;PMS5003;43703;51.060;-0.086;2022-11-20T08:10:52;0;0;
57884;PMS5003;43703;51.060;-0.086;2022-11-20T08:13:18;0;0;
57884;PMS5003;43703;51.060;-0.086;2022-11-20T08:15:47;0;0;
57884;PMS5003;43703;51.060;-0.086;2022-11-20T08:18:10;0;0;
57884;PMS5003;43703;51.060;-0.086;2022-11-20T08:20:35;0;0;
57884;PMS5003;43703;51.060;-0.086;2022-11-20T08:23:01;0;0;
57884;PMS5003;43703;51.060;-0.086;2022-11-20T08:25:27;0;0;
57884;PMS5003;43703;51.060;-0.086;2022-11-20T08:27:53;0;0;
57884;PMS5003;43703;51.060;-0.086;2022-11-20T08:30:19;0;0;
57884;PMS5003;43703;51.060;-0.086;2022-11-20T08:32:44;0;0;
57884;PMS5003;43703;51.060;-0.086;2022-11-20T08:35:10;1;1;
57884;PMS5003;43703;51.060;-0.086;2022-11-20T08:37:36;0;0;
57884;PMS5003;43703;51.060;-0.086;2022-11-20T08:40:01;2;0;
57884;PMS5003;43703;51.060;-0.086;2022-11-20T08:42:26;0;0;
57884;PMS5003;43703;51.060;-0.086;2022-11-20T08:44:51;0;0;
57884;PMS5003;43703;51.060;-0.086;2022-11-20T08:47:16;0;0;
57884;PMS5003;43703;51.060;-0.086;2022-11-20T08:49:41;0;0;
57884;PMS5003;43703;51.060;-0.086;2022-11-20T08:52:06;1;1;
57884;PMS5003;43703;51.060;-0.086;2022-11-20T08:54:31;1;1;
57884;PMS5003;43703;51.060;-0.086;2022-11-20T08:56:56;2;1;
57884;PMS5003;43703;51.060;-0.086;2022-11-20T08:59:21;2;2;
57884;PMS5003;43703;51.060;-0.086;2022-11-20T09:01:46;1;1;
57884;PMS5003;43703;51.060;-0.086;2022-11-20T09:04:11;1;1;
57884;PMS5003;43703;51.060;-0.086;2022-11-20T09:06:36;2;2;
57884;PMS5003;43703;51.060;-0.086;2022-11-20T09:09:01;0;0;
57884;PMS5003;43703;51.060;-0.086;2022-11-20T09:11:26;0;0;
57884;PMS5003;43703;51.060;-0.086;2022-11-20T09:13:52;5;3;
57884;PMS5003;43703;51.060;-0.086;2022-11-20T09:16:17;1;1;
57884;PMS5003;43703;51.060;-0.086;2022-11-20T09:18:42;2;1;
57884;PMS5003;43703;51.060;-0.086;2022-11-20T09:21:09;3;3;
57884;PMS5003;43703;51.060;-0.086;2022-11-20T09:23:33;3;2;
57884;PMS5003;43703;51.060;-0.086;2022-11-20T09:25:57;2;2;
57884;PMS5003;43703;51.060;-0.086;2022-11-20T09:28:22;3;3;
57884;PMS5003;43703;51.060;-0.086;2022-11-20T09:30:47;2;2;
57884;PMS5003;43703;51.060;-0.086;2022-11-20T09:33:12;2;1;
57884;PMS5003;43703;51.060;-0.086;2022-11-20T09:35:38;5;4;
57884;PMS5003;43703;51.060;-0.086;2022-11-20T09:38:04;2;2;
57884;PMS5003;43703;51.060;-0.086;2022-11-20T09:40:28;4;4;
57884;PMS5003;43703;51.060;-0.086;2022-11-20T09:42:54;1;1;
57884;PMS5003;43703;51.060;-0.086;2022-11-20T09:45:21;8;4;
57884;PMS5003;43703;51.060;-0.086;2022-11-20T09:47:47;1;1;
57884;PMS5003;43703;51.060;-0.086;2022-11-20T09:50:14;3;3;
57884;PMS5003;43703;51.060;-0.086;2022-11-20T09:52:37;3;2;
57884;PMS5003;43703;51.060;-0.086;2022-11-20T09:54:58;5;5;
57884;PMS5003;43703;51.060;-0.086;2022-11-20T09:57:25;2;2;
57884;PMS5003;43703;51.060;-0.086;2022-11-20T09:59:49;4;3;
57884;PMS5003;43703;51.060;-0.086;2022-11-20T10:02:16;4;2;
57884;PMS5003;43703;51.060;-0.086;2022-11-20T10:04:38;3;2;
57884;PMS5003;43703;51.060;-0.086;2022-11-20T10:07:11;2;1;
57884;PMS5003;43703;51.060;-0.086;2022-11-20T10:09:29;5;5;
57884;PMS5003;43703;51.060;-0.086;2022-11-20T10:11:56;4;3;
57884;PMS5003;43703;51.060;-0.086;2022-11-20T10:14:23;3;3;
57884;PMS5003;43703;51.060;-0.086;2022-11-20T10:16:46;5;3;
57884;PMS5003;43703;51.060;-0.086;2022-11-20T10:19:13;3;3;
57884;PMS5003;43703;51.060;-0.086;2022-11-20T10:21:37;4;3;
57884;PMS5003;43703;51.060;-0.086;2022-11-20T10:24:04;4;4;
57884;PMS5003;43703;51.060;-0.086;2022-11-20T10:26:26;4;3;
57884;PMS5003;43703;51.060;-0.086;2022-11-20T10:28:54;5;3;
57884;PMS5003;43703;51.060;-0.086;2022-11-20T10:31:17;6;4;
57884;PMS5003;43703;51.060;-0.086;2022-11-20T10:33:40;3;3;
57884;PMS5003;43703;51.060;-0.086;2022-11-20T10:36:06;2;2;
57884;PMS5003;43703;51.060;-0.086;2022-11-20T10:38:31;2;2;
57884;PMS5003;43703;51.060;-0.086;2022-11-20T10:40:56;8;6;
57884;PMS5003;43703;51.060;-0.086;2022-11-20T10:43:21;2;2;
57884;PMS5003;43703;51.060;-0.086;2022-11-20T10:45:47;3;3;
57884;PMS5003;43703;51.060;-0.086;2022-11-20T10:48:12;4;3;
57884;PMS5003;43703;51.060;-0.086;2022-11-20T10:50:36;3;3;
57884;PMS5003;43703;51.060;-0.086;2022-11-20T10:53:02;6;6;
57884;PMS5003;43703;51.060;-0.086;2022-11-20T10:55:28;3;3;
57884;PMS5003;43703;51.060;-0.086;2022-11-20T10:57:52;7;4;
57884;PMS5003;43703;51.060;-0.086;2022-11-20T11:00:17;7;4;
57884;PMS5003;43703;51.060;-0.086;2022-11-20T11:02:43;6;3;
57884;PMS5003;43703;51.060;-0.086;2022-11-20T11:07:33;4;2;
57884;PMS5003;43703;51.060;-0.086;2022-11-20T11:09:57;3;3;
57884;PMS5003;43703;51.060;-0.086;2022-11-20T11:12:24;4;3;
57884;PMS5003;43703;51.060;-0.086;2022-11-20T11:14:48;3;3;
57884;PMS5003;43703;51.060;-0.086;2022-11-20T11:19:37;7;3;
57884;PMS5003;43703;51.060;-0.086;2022-11-20T11:22:02;7;7;
57884;PMS5003;43703;51.060;-0.086;2022-11-20T11:24:28;7;6;
57884;PMS5003;43703;51.060;-0.086;2022-11-20T11:26:53;7;7;
57884;PMS5003;43703;51.060;-0.086;2022-11-20T11:29:18;4;4;
57884;PMS5003;43703;51.060;-0.086;2022-11-20T11:31:42;7;5;
57884;PMS5003;43703;51.060;-0.086;2022-11-20T11:34:08;7;5;
57884;PMS5003;43703;51.060;-0.086;2022-11-20T11:36:32;6;5;
57884;PMS5003;43703;51.060;-0.086;2022-11-20T11:38:58;8;3;
57884;PMS5003;43703;51.060;-0.086;2022-11-20T11:41:25;6;4;
57884;PMS5003;43703;51.060;-0.086;2022-11-20T11:43:51;4;4;
57884;PMS5003;43703;51.060;-0.086;2022-11-20T11:48:39;4;4;
57884;PMS5003;43703;51.060;-0.086;2022-11-20T11:51:07;4;3;
57884;PMS5003;43703;51.060;-0.086;2022-11-20T11:53:29;5;4;
57884;PMS5003;43703;51.060;-0.086;2022-11-20T11:55:56;4;3;
57884;PMS5003;43703;51.060;-0.086;2022-11-20T11:58:23;8;4;
57884;PMS5003;43703;51.060;-0.086;2022-11-20T12:00:47;6;5;
57884;PMS5003;43703;51.060;-0.086;2022-11-20T12:03:12;3;3;
57884;PMS5003;43703;51.060;-0.086;2022-11-20T12:05:36;4;4;
57884;PMS5003;43703;51.060;-0.086;2022-11-20T12:08:01;5;5;
57884;PMS5003;43703;51.060;-0.086;2022-11-20T12:10:28;6;2;
57884;PMS5003;43703;51.060;-0.086;2022-11-20T12:12:51;6;2;
57884;PMS5003;43703;51.060;-0.086;2022-11-20T12:15:19;5;5;
57884;PMS5003;43703;51.060;-0.086;2022-11-20T12:17:40;5;5;
57884;PMS5003;43703;51.060;-0.086;2022-11-20T12:20:11;3;3;
57884;PMS5003;43703;51.060;-0.086;2022-11-20T12:22:33;4;4;
57884;PMS5003;43703;51.060;-0.086;2022-11-20T12:24:58;6;6;
57884;PMS5003;43703;51.060;-0.086;2022-11-20T12:29:48;4;4;
57884;PMS5003;43703;51.060;-0.086;2022-11-20T12:34:43;4;4;
57884;PMS5003;43703;51.060;-0.086;2022-11-20T12:37:05;4;2;
57884;PMS5003;43703;51.060;-0.086;2022-11-20T12:42:01;5;5;
57884;PMS5003;43703;51.060;-0.086;2022-11-20T12:44:26;3;3;
57884;PMS5003;43703;51.060;-0.086;2022-11-20T12:46:47;8;4;
57884;PMS5003;43703;51.060;-0.086;2022-11-20T12:49:15;6;4;
57884;PMS5003;43703;51.060;-0.086;2022-11-20T12:51:44;6;4;
57884;PMS5003;43703;51.060;-0.086;2022-11-20T12:54:08;4;3;
57884;PMS5003;43703;51.060;-0.086;2022-11-20T12:56:30;6;3;
57884;PMS5003;43703;51.060;-0.086;2022-11-20T12:58:56;6;6;
57884;PMS5003;43703;51.060;-0.086;2022-11-20T13:01:21;5;3;
57884;PMS5003;43703;51.060;-0.086;2022-11-20T13:03:44;4;3;
57884;PMS5003;43703;51.060;-0.086;2022-11-20T13:06:11;4;3;
57884;PMS5003;43703;51.060;-0.086;2022-11-20T13:08:35;8;4;
57884;PMS5003;43703;51.060;-0.086;2022-11-20T13:11:01;6;5;
57884;PMS5003;43703;51.060;-0.086;2022-11-20T13:13:28;4;2;
57884;PMS5003;43703;51.060;-0.086;2022-11-20T13:15:51;3;3;
57884;PMS5003;43703;51.060;-0.086;2022-11-20T13:18:16;6;3;
57884;PMS5003;43703;51.060;-0.086;2022-11-20T13:20:41;4;3;
57884;PMS5003;43703;51.060;-0.086;2022-11-20T13:23:07;5;3;
57884;PMS5003;43703;51.060;-0.086;2022-11-20T13:25:32;2;2;
57884;PMS5003;43703;51.060;-0.086;2022-11-20T13:27:57;7;5;
57884;PMS5003;43703;51.060;-0.086;2022-11-20T13:30:22;4;3;
57884;PMS5003;43703;51.060;-0.086;2022-11-20T13:32:49;4;4;
57884;PMS5003;43703;51.060;-0.086;2022-11-20T13:35:11;6;4;
57884;PMS5003;43703;51.060;-0.086;2022-11-20T13:37:37;5;4;
57884;PMS5003;43703;51.060;-0.086;2022-11-20T13:42:28;7;5;
57884;PMS5003;43703;51.060;-0.086;2022-11-20T13:44:53;3;3;
57884;PMS5003;43703;51.060;-0.086;2022-11-20T13:47:20;5;5;
57884;PMS5003;43703;51.060;-0.086;2022-11-20T13:49:43;4;2;
57884;PMS5003;43703;51.060;-0.086;2022-11-20T13:57:01;4;4;
57884;PMS5003;43703;51.060;-0.086;2022-11-20T13:59:28;2;2;
57884;PMS5003;43703;51.060;-0.086;2022-11-20T14:01:48;7;6;
57884;PMS5003;43703;51.060;-0.086;2022-11-20T14:04:14;6;3;
57884;PMS5003;43703;51.060;-0.086;2022-11-20T14:06:39;6;4;
57884;PMS5003;43703;51.060;-0.086;2022-11-20T14:09:03;3;3;
57884;PMS5003;43703;51.060;-0.086;2022-11-20T14:11:29;7;7;
57884;PMS5003;43703;51.060;-0.086;2022-11-20T14:13:57;7;4;
57884;PMS5003;43703;51.060;-0.086;2022-11-20T14:16:19;5;3;
57884;PMS5003;43703;51.060;-0.086;2022-11-20T14:18:44;6;3;
57884;PMS5003;43703;51.060;-0.086;2022-11-20T14:21:09;6;2;
57884;PMS5003;43703;51.060;-0.086;2022-11-20T14:23:35;6;4;
57884;PMS5003;43703;51.060;-0.086;2022-11-20T14:25:59;4;2;
57884;PMS5003;43703;51.060;-0.086;2022-11-20T14:28:25;5;4;
57884;PMS5003;43703;51.060;-0.086;2022-11-20T14:30:50;6;4;
57884;PMS5003;43703;51.060;-0.086;2022-11-20T14:33:15;5;5;
57884;PMS5003;43703;51.060;-0.086;2022-11-20T14:35:41;6;3;
57884;PMS5003;43703;51.060;-0.086;2022-11-20T14:38:08;7;6;
57884;PMS5003;43703;51.060;-0.086;2022-11-20T14:40:30;6;4;
57884;PMS5003;43703;51.060;-0.086;2022-11-20T14:42:55;6;5;
57884;PMS5003;43703;51.060;-0.086;2022-11-20T14:45:20;8;5;
57884;PMS5003;43703;51.060;-0.086;2022-11-20T14:47:45;9;6;
57884;PMS5003;43703;51.060;-0.086;2022-11-20T14:50:12;11;9;
57884;PMS5003;43703;51.060;-0.086;2022-11-20T14:52:35;13;11;
57884;PMS5003;43703;51.060;-0.086;2022-11-20T14:55:00;7;7;
57884;PMS5003;43703;51.060;-0.086;2022-11-20T14:57:27;6;5;
57884;PMS5003;43703;51.060;-0.086;2022-11-20T14:59:51;12;8;
57884;PMS5003;43703;51.060;-0.086;2022-11-20T15:02:16;8;8;
57884;PMS5003;43703;51.060;-0.086;2022-11-20T15:04:45;4;2;
57884;PMS5003;43703;51.060;-0.086;2022-11-20T15:07:06;7;3;
57884;PMS5003;43703;51.060;-0.086;2022-11-20T15:09:31;6;4;
57884;PMS5003;43703;51.060;-0.086;2022-11-20T15:11:56;5;5;
57884;PMS5003;43703;51.060;-0.086;2022-11-20T15:14:21;6;5;
57884;PMS5003;43703;51.060;-0.086;2022-11-20T15:16:46;8;5;
57884;PMS5003;43703;51.060;-0.086;2022-11-20T15:19:13;6;5;
57884;PMS5003;43703;51.060;-0.086;2022-11-20T15:21:37;6;5;
57884;PMS5003;43703;51.060;-0.086;2022-11-20T15:24:02;6;6;
57884;PMS5003;43703;51.060;-0.086;2022-11-20T15:26:27;5;4;
57884;PMS5003;43703;51.060;-0.086;2022-11-20T15:28:52;5;4;
57884;PMS5003;43703;51.060;-0.086;2022-11-20T15:31:18;4;3;
57884;PMS5003;43703;51.060;-0.086;2022-11-20T15:33:42;9;6;
57884;PMS5003;43703;51.060;-0.086;2022-11-20T15:36:07;6;4;
57884;PMS5003;43703;51.060;-0.086;2022-11-20T15:38:32;8;6;
57884;PMS5003;43703;51.060;-0.086;2022-11-20T15:40:58;12;8;
57884;PMS5003;43703;51.060;-0.086;2022-11-20T15:43:23;5;5;
57884;PMS5003;43703;51.060;-0.086;2022-11-20T15:45:49;5;5;
57884;PMS5003;43703;51.060;-0.086;2022-11-20T15:48:15;4;4;
57884;PMS5003;43703;51.060;-0.086;2022-11-20T15:50:41;5;4;
57884;PMS5003;43703;51.060;-0.086;2022-11-20T15:53:05;7;6;
57884;PMS5003;43703;51.060;-0.086;2022-11-20T15:55:30;6;5;
57884;PMS5003;43703;51.060;-0.086;2022-11-20T15:57:56;4;2;
57884;PMS5003;43703;51.060;-0.086;2022-11-20T16:00:21;2;1;
57884;PMS5003;43703;51.060;-0.086;2022-11-20T16:02:46;3;3;
57884;PMS5003;43703;51.060;-0.086;2022-11-20T16:05:11;0;0;
57884;PMS5003;43703;51.060;-0.086;2022-11-20T16:07:36;2;2;
57884;PMS5003;43703;51.060;-0.086;2022-11-20T16:10:01;4;2;
57884;PMS5003;43703;51.060;-0.086;2022-11-20T16:12:26;1;1;
57884;PMS5003;43703;51.060;-0.086;2022-11-20T16:14:51;2;2;
57884;PMS5003;43703;51.060;-0.086;2022-11-20T16:17:16;3;2;
57884;PMS5003;43703;51.060;-0.086;2022-11-20T16:19:41;3;1;
57884;PMS5003;43703;51.060;-0.086;2022-11-20T16:22:06;5;3;
57884;PMS5003;43703;51.060;-0.086;2022-11-20T16:24:31;4;4;
57884;PMS5003;43703;51.060;-0.086;2022-11-20T16:26:56;6;3;
57884;PMS5003;43703;51.060;-0.086;2022-11-20T16:29:22;1;1;
57884;PMS5003;43703;51.060;-0.086;2022-11-20T16:31:46;2;1;
57884;PMS5003;43703;51.060;-0.086;2022-11-20T16:34:11;2;2;
57884;PMS5003;43703;51.060;-0.086;2022-11-20T16:36:38;1;1;